createdAt,value
2016-02-18T00:01:26.688Z,0
2016-02-18T00:02:13.972Z,0
2016-02-18T00:04:20.087Z,0
2016-02-18T00:09:10.757Z,0
2016-02-18T00:10:07.385Z,0
2016-02-18T00:11:51.626Z,0
2016-02-18T00:12:29.706Z,0
2016-02-18T00:13:39.302Z,0
2016-02-18T00:14:48.853Z,0
2016-02-18T00:15:42.386Z,0
2016-02-18T00:16:57.608Z,0
2016-02-18T00:17:29.470Z,0
2016-02-18T00:19:44.615Z,0
2016-02-18T00:20:44.665Z,0
2016-02-18T00:21:57.214Z,0
2016-02-18T00:22:57.358Z,0
2016-02-18T00:24:03.891Z,0
2016-02-18T00:25:03.894Z,0
2016-02-18T00:26:10.397Z,0
2016-02-18T00:27:07.040Z,0
2016-02-18T00:28:07.012Z,0
2016-02-18T00:29:14.923Z,0
2016-02-18T00:30:08.438Z,0
2016-02-18T00:31:51.319Z,0
2016-02-18T00:32:05.304Z,0
2016-02-18T00:33:05.307Z,0
2016-02-18T00:34:18.202Z,0
2016-02-18T00:35:11.640Z,0
2016-02-18T00:36:24.536Z,0
2016-02-18T00:37:18.184Z,0
2016-02-18T00:40:31.098Z,0
2016-02-18T00:40:43.630Z,0
2016-02-18T00:42:58.853Z,0
2016-02-18T00:43:58.842Z,0
2016-02-18T00:44:58.891Z,0
2016-02-18T00:45:59.675Z,0
2016-02-18T00:47:05.161Z,0
2016-02-18T00:48:00.961Z,0
2016-02-18T00:49:11.683Z,0
2016-02-18T00:50:11.685Z,0
2016-02-18T00:51:18.237Z,0
2016-02-18T00:54:24.761Z,0
2016-02-18T00:54:37.371Z,0
2016-02-18T00:55:37.327Z,0
2016-02-18T00:56:37.376Z,0
2016-02-18T00:57:43.629Z,0
2016-02-18T00:58:50.131Z,0
2016-02-18T00:59:50.212Z,0
2016-02-18T01:00:50.121Z,0
2016-02-18T01:01:50.249Z,0
2016-02-18T01:02:50.376Z,0
2016-02-18T01:03:56.646Z,0
2016-02-18T01:04:56.663Z,0
2016-02-18T01:06:03.166Z,0
2016-02-18T01:06:47.048Z,0
2016-02-18T01:08:06.301Z,0
2016-02-18T01:09:44.009Z,0
2016-02-18T01:12:24.877Z,0
2016-02-18T01:13:03.127Z,0
2016-02-18T01:13:37.473Z,0
2016-02-18T01:15:10.211Z,0
2016-02-18T01:15:48.416Z,0
2016-02-18T01:16:48.497Z,0
2016-02-18T01:17:49.938Z,0
2016-02-18T01:18:48.534Z,0
2016-02-18T01:19:57.786Z,0
2016-02-18T01:20:49.930Z,0
2016-02-18T01:21:48.527Z,0
2016-02-18T01:23:07.904Z,0
2016-02-18T01:24:01.297Z,0
2016-02-18T01:25:14.207Z,0
2016-02-18T01:26:07.818Z,0
2016-02-18T01:27:19.932Z,0
2016-02-18T01:28:10.885Z,0
2016-02-18T01:29:55.173Z,0
2016-02-18T01:30:13.985Z,0
2016-02-18T01:32:20.493Z,0
2016-02-18T01:33:20.511Z,0
2016-02-18T01:35:49.345Z,0
2016-02-18T01:37:14.191Z,0
2016-02-18T01:37:49.584Z,0
2016-02-18T01:38:30.165Z,0
2016-02-18T01:40:01.512Z,0
2016-02-18T01:40:39.796Z,0
2016-02-18T01:42:05.502Z,0
2016-02-18T01:42:49.364Z,0
2016-02-18T01:44:08.585Z,0
2016-02-18T01:44:55.511Z,0
2016-02-18T01:46:11.591Z,0
2016-02-18T01:47:05.186Z,0
2016-02-18T01:48:23.802Z,0
2016-02-18T01:48:55.552Z,0
2016-02-18T01:51:05.323Z,0
2016-02-18T01:51:52.575Z,0
2016-02-18T01:52:52.688Z,0
2016-02-18T01:53:54.080Z,0
2016-02-18T01:55:05.350Z,0
2016-02-18T01:55:55.618Z,0
2016-02-18T01:57:11.667Z,0
2016-02-18T01:58:05.341Z,0
2016-02-18T02:00:08.831Z,0
2016-02-18T02:01:27.554Z,0
2016-02-18T02:02:21.387Z,0
2016-02-18T02:03:27.580Z,0
2016-02-18T02:04:27.554Z,0
2016-02-18T02:05:40.467Z,0
2016-02-18T02:06:34.005Z,0
2016-02-18T02:08:50.017Z,0
2016-02-18T02:10:52.638Z,0
2016-02-18T02:11:30.902Z,0
2016-02-18T02:12:05.214Z,0
2016-02-18T02:14:07.842Z,0
2016-02-18T02:14:39.593Z,0
2016-02-18T02:15:20.390Z,0
2016-02-18T02:16:26.721Z,0
2016-02-18T02:17:20.471Z,0
2016-02-18T02:18:33.178Z,0
2016-02-18T02:19:26.742Z,0
2016-02-18T02:20:39.650Z,0
2016-02-18T02:21:33.215Z,0
2016-02-18T02:23:36.361Z,0
2016-02-18T02:24:55.754Z,0
2016-02-18T02:26:01.413Z,0
2016-02-18T02:26:30.104Z,0
2016-02-18T02:28:32.734Z,0
2016-02-18T02:28:45.327Z,0
2016-02-18T02:29:45.315Z,0
2016-02-18T02:30:45.536Z,0
2016-02-18T02:31:58.085Z,0
2016-02-18T02:32:45.557Z,0
2016-02-18T02:34:04.622Z,0
2016-02-18T02:34:51.657Z,0
2016-02-18T02:36:11.065Z,0
2016-02-18T02:36:54.928Z,0
2016-02-18T02:37:54.930Z,0
2016-02-18T02:38:54.948Z,0
2016-02-18T02:40:07.732Z,0
2016-02-18T02:40:54.970Z,0
2016-02-18T02:42:14.253Z,0
2016-02-18T02:42:58.162Z,0
2016-02-18T02:44:17.321Z,0
2016-02-18T02:44:58.370Z,0
2016-02-18T02:45:58.186Z,0
2016-02-18T02:47:04.438Z,0
2016-02-18T02:47:58.191Z,0
2016-02-18T02:48:58.335Z,0
2016-02-18T02:49:58.197Z,0
2016-02-18T02:51:04.511Z,0
2016-02-18T02:52:10.999Z,0
2016-02-18T02:53:17.454Z,0
2016-02-18T02:53:58.254Z,0
2016-02-18T02:55:29.572Z,0
2016-02-18T02:55:58.463Z,0
2016-02-18T02:56:58.294Z,0
2016-02-18T02:58:04.687Z,0
2016-02-18T02:58:58.518Z,0
2016-02-18T03:01:01.414Z,0
2016-02-18T03:02:20.620Z,0
2016-02-18T03:03:30.047Z,0
2016-02-18T03:04:30.190Z,0
2016-02-18T03:05:35.849Z,0
2016-02-18T03:06:35.884Z,0
2016-02-18T03:07:05.962Z,0
2016-02-18T03:08:04.558Z,0
2016-02-18T03:09:07.748Z,0
2016-02-18T03:10:10.845Z,0
2016-02-18T03:11:18.738Z,0
2016-02-18T03:12:17.584Z,0
2016-02-18T03:13:23.836Z,0
2016-02-18T03:14:23.839Z,0
2016-02-18T03:15:35.954Z,0
2016-02-18T03:16:30.329Z,0
2016-02-18T03:17:04.706Z,0
2016-02-18T03:18:30.725Z,0
2016-02-18T03:19:17.399Z,0
2016-02-18T03:20:36.014Z,0
2016-02-18T03:21:26.139Z,0
2016-02-18T03:23:48.819Z,0
2016-02-18T03:25:01.400Z,0
2016-02-18T03:26:01.450Z,0
2016-02-18T03:27:01.405Z,0
2016-02-18T03:28:01.627Z,0
2016-02-18T03:29:01.614Z,0
2016-02-18T03:30:01.430Z,0
2016-02-18T03:31:07.730Z,0
2016-02-18T03:32:01.857Z,0
2016-02-18T03:33:01.500Z,0
2016-02-18T03:34:02.925Z,0
2016-02-18T03:35:07.599Z,0
2016-02-18T03:36:01.508Z,0
2016-02-18T03:37:14.277Z,0
2016-02-18T03:38:07.779Z,0
2016-02-18T03:39:20.751Z,0
2016-02-18T03:40:14.269Z,0
2016-02-18T03:41:27.241Z,0
2016-02-18T03:42:14.321Z,0
2016-02-18T03:44:16.779Z,0
2016-02-18T03:45:16.673Z,0
2016-02-18T03:47:19.429Z,0
2016-02-18T03:47:31.992Z,0
2016-02-18T03:48:32.009Z,0
2016-02-18T03:49:31.997Z,0
2016-02-18T03:50:32.749Z,0
2016-02-18T03:51:44.800Z,0
2016-02-18T03:52:32.082Z,0
2016-02-18T03:53:51.260Z,0
2016-02-18T03:54:44.809Z,0
2016-02-18T03:55:57.781Z,0
2016-02-18T03:56:51.314Z,0
2016-02-18T03:58:03.474Z,0
2016-02-18T03:58:32.130Z,0
2016-02-18T03:59:32.132Z,0
2016-02-18T04:00:44.904Z,0
2016-02-18T04:01:32.232Z,0
2016-02-18T04:03:41.940Z,0
2016-02-18T04:05:00.805Z,0
2016-02-18T04:06:51.308Z,0
2016-02-18T04:07:03.921Z,0
2016-02-18T04:09:00.863Z,0
2016-02-18T04:09:13.551Z,0
2016-02-18T04:10:13.460Z,0
2016-02-18T04:11:19.728Z,0
2016-02-18T04:12:26.200Z,0
2016-02-18T04:13:26.218Z,0
2016-02-18T04:14:32.674Z,0
2016-02-18T04:15:32.723Z,0
2016-02-18T04:16:39.163Z,0
2016-02-18T04:18:54.201Z,0
2016-02-18T04:21:03.115Z,0
2016-02-18T04:22:03.132Z,0
2016-02-18T04:23:15.964Z,0
2016-02-18T04:24:03.950Z,0
2016-02-18T04:26:12.472Z,0
2016-02-18T04:27:31.896Z,0
2016-02-18T04:28:10.118Z,0
2016-02-18T04:30:14.170Z,0
2016-02-18T04:30:52.436Z,0
2016-02-18T04:31:26.735Z,0
2016-02-18T04:32:58.661Z,0
2016-02-18T04:33:33.521Z,0
2016-02-18T04:35:01.809Z,0
2016-02-18T04:35:40.043Z,0
2016-02-18T04:37:05.752Z,0
2016-02-18T04:37:52.673Z,0
2016-02-18T04:39:15.350Z,0
2016-02-18T04:39:59.227Z,0
2016-02-18T04:41:18.418Z,0
2016-02-18T04:42:11.984Z,0
2016-02-18T04:43:24.954Z,0
2016-02-18T04:44:18.458Z,0
2016-02-18T04:46:15.197Z,0
2016-02-18T04:47:34.340Z,0
2016-02-18T04:48:43.921Z,0
2016-02-18T04:49:18.237Z,0
2016-02-18T04:50:18.223Z,0
2016-02-18T04:51:18.398Z,0
2016-02-18T04:52:30.979Z,0
2016-02-18T04:53:31.045Z,0
2016-02-18T04:54:37.548Z,0
2016-02-18T04:55:43.971Z,0
2016-02-18T04:56:44.006Z,0
2016-02-18T04:57:49.711Z,0
2016-02-18T04:58:44.026Z,0
2016-02-18T05:00:20.969Z,0
2016-02-18T05:00:59.207Z,0
2016-02-18T05:01:33.551Z,0
2016-02-18T05:03:39.228Z,0
2016-02-18T05:04:18.730Z,0
2016-02-18T05:04:51.904Z,0
2016-02-18T05:06:54.379Z,0
2016-02-18T05:07:06.991Z,0
2016-02-18T05:08:06.962Z,0
2016-02-18T05:09:06.980Z,0
2016-02-18T05:10:13.297Z,0
2016-02-18T05:11:13.330Z,0
2016-02-18T05:12:19.786Z,0
2016-02-18T05:13:07.023Z,0
2016-02-18T05:14:38.343Z,0
2016-02-18T05:15:16.580Z,0
2016-02-18T05:16:42.004Z,0
2016-02-18T05:17:23.288Z,0
2016-02-18T05:18:42.493Z,0
2016-02-18T05:19:20.716Z,0
2016-02-18T05:20:52.032Z,0
2016-02-18T05:21:23.862Z,0
2016-02-18T05:22:55.146Z,0
2016-02-18T05:23:30.070Z,0
2016-02-18T05:24:23.839Z,0
2016-02-18T05:25:23.872Z,0
2016-02-18T05:26:36.719Z,0
2016-02-18T05:27:23.862Z,0
2016-02-18T05:28:49.568Z,0
2016-02-18T05:29:27.790Z,0
2016-02-18T05:30:59.120Z,0
2016-02-18T05:31:34.123Z,0
2016-02-18T05:33:05.456Z,0
2016-02-18T05:33:47.050Z,0
2016-02-18T05:34:59.161Z,0
2016-02-18T05:35:40.586Z,0
2016-02-18T05:36:27.887Z,0
2016-02-18T05:37:47.092Z,0
2016-02-18T05:38:27.892Z,0
2016-02-18T05:39:53.613Z,0
2016-02-18T05:40:27.960Z,0
2016-02-18T05:42:43.246Z,0
2016-02-18T05:43:43.249Z,0
2016-02-18T05:44:43.251Z,0
2016-02-18T05:45:43.301Z,0
2016-02-18T05:46:43.352Z,0
2016-02-18T05:47:56.026Z,0
2016-02-18T05:48:43.935Z,0
2016-02-18T05:50:02.518Z,0
2016-02-18T05:50:56.065Z,0
2016-02-18T05:51:43.364Z,0
2016-02-18T05:55:15.313Z,0
2016-02-18T05:56:02.596Z,0
2016-02-18T05:57:02.584Z,0
2016-02-18T05:58:02.586Z,0
2016-02-18T05:59:02.620Z,0
2016-02-18T06:00:02.607Z,0
2016-02-18T06:01:15.359Z,0
2016-02-18T06:02:08.957Z,0
2016-02-18T06:03:21.881Z,0
2016-02-18T06:04:15.525Z,0
2016-02-18T06:05:33.968Z,0
2016-02-18T06:06:05.830Z,0
2016-02-18T06:08:08.398Z,4
2016-02-18T06:08:21.039Z,4
2016-02-18T06:09:21.010Z,0
2016-02-18T06:10:21.028Z,4
2016-02-18T06:11:33.765Z,4
2016-02-18T06:12:27.316Z,4
2016-02-18T06:13:40.318Z,4
2016-02-18T06:14:33.884Z,8
2016-02-18T06:15:52.401Z,8
2016-02-18T06:16:35.295Z,8
2016-02-18T06:18:40.362Z,12
2016-02-18T06:19:22.615Z,12
2016-02-18T06:21:18.121Z,20
2016-02-18T06:21:30.684Z,20
2016-02-18T06:23:45.892Z,28
2016-02-18T06:24:33.066Z,32
2016-02-18T06:25:52.288Z,40
2016-02-18T06:26:33.071Z,40
2016-02-18T06:28:30.125Z,44
2016-02-18T06:28:42.687Z,48
2016-02-18T06:30:39.692Z,48
2016-02-18T06:31:11.491Z,48
2016-02-18T06:32:21.150Z,48
2016-02-18T06:33:05.012Z,52
2016-02-18T06:34:05.063Z,52
2016-02-18T06:35:05.049Z,56
2016-02-18T06:36:11.411Z,64
2016-02-18T06:37:05.289Z,64
2016-02-18T06:38:24.277Z,72
2016-02-18T06:39:05.091Z,76
2016-02-18T06:40:30.891Z,84
2016-02-18T06:41:17.863Z,88
2016-02-18T06:42:36.459Z,96
2016-02-18T06:43:11.493Z,100
2016-02-18T06:44:05.167Z,108
2016-02-18T06:45:05.185Z,120
2016-02-18T06:46:11.469Z,132
2016-02-18T06:47:17.926Z,144
2016-02-18T06:48:19.365Z,156
2016-02-18T06:49:24.446Z,164
2016-02-18T06:51:33.514Z,184
2016-02-18T06:51:46.092Z,192
2016-02-18T06:53:48.722Z,208
2016-02-18T06:54:20.522Z,208
2016-02-18T06:55:01.350Z,224
2016-02-18T06:57:55.092Z,256
2016-02-18T06:59:13.505Z,272
2016-02-18T06:59:54.802Z,276
2016-02-18T07:00:26.257Z,280
2016-02-18T07:02:28.715Z,304
2016-02-18T07:03:07.063Z,316
2016-02-18T07:03:41.281Z,324
2016-02-18T07:05:44.568Z,360
2016-02-18T07:06:22.820Z,368
2016-02-18T07:06:57.179Z,380
2016-02-18T07:09:12.374Z,424
2016-02-18T07:10:12.409Z,440
2016-02-18T07:11:12.396Z,460
2016-02-18T07:12:12.462Z,484
2016-02-18T07:13:18.682Z,508
2016-02-18T07:14:25.201Z,520
2016-02-18T07:15:25.173Z,540
2016-02-18T07:17:41.334Z,616
2016-02-18T07:18:41.352Z,644
2016-02-18T07:19:47.636Z,656
2016-02-18T07:20:47.639Z,680
2016-02-18T07:21:54.156Z,712
2016-02-18T07:23:00.614Z,740
2016-02-18T07:24:03.709Z,756
2016-02-18T07:25:09.981Z,768
2016-02-18T07:26:19.530Z,780
2016-02-18T07:27:50.845Z,824
2016-02-18T07:29:06.035Z,876
2016-02-18T07:29:34.772Z,896
2016-02-18T07:30:34.744Z,928
2016-02-18T07:31:47.512Z,968
2016-02-18T07:32:34.811Z,1008
2016-02-18T07:33:53.986Z,1056
2016-02-18T07:34:35.410Z,1084
2016-02-18T07:36:00.476Z,1144
2016-02-18T07:37:10.059Z,1168
2016-02-18T07:38:06.621Z,1236
2016-02-18T07:39:16.190Z,1264
2016-02-18T07:40:16.208Z,1288
2016-02-18T07:41:00.099Z,1304
2016-02-18T07:43:28.888Z,1404
2016-02-18T07:44:28.954Z,1460
2016-02-18T07:45:10.300Z,1504
2016-02-18T07:47:12.351Z,1624
2016-02-18T07:47:25.023Z,1636
2016-02-18T07:48:25.042Z,1708
2016-02-18T07:49:31.265Z,1756
2016-02-18T07:50:37.720Z,1784
2016-02-18T07:51:44.285Z,1816
2016-02-18T07:52:44.084Z,1828
2016-02-18T07:55:00.292Z,1908
2016-02-18T07:57:52.926Z,2072
2016-02-18T07:58:52.945Z,2148
2016-02-18T07:59:59.213Z,2236
2016-02-18T08:01:05.716Z,2288
2016-02-18T08:01:59.233Z,2324
2016-02-18T08:04:02.754Z,2336
2016-02-18T08:05:15.370Z,2428
2016-02-18T08:06:15.402Z,2464
2016-02-18T08:07:16.812Z,2456
2016-02-18T08:08:15.425Z,2464
2016-02-18T08:09:28.146Z,2464
2016-02-18T08:10:21.711Z,2464
2016-02-18T08:11:34.682Z,2476
2016-02-18T08:12:28.044Z,2436
2016-02-18T08:14:31.768Z,2432
2016-02-18T08:14:44.331Z,2432
2016-02-18T08:15:44.349Z,2420
2016-02-18T08:16:44.368Z,2452
2016-02-18T08:17:44.401Z,2524
2016-02-18T08:18:50.639Z,2576
2016-02-18T08:19:44.376Z,2576
2016-02-18T08:20:57.145Z,2616
2016-02-18T08:21:57.162Z,2672
2016-02-18T08:23:10.106Z,2704
2016-02-18T08:23:57.496Z,2740
2016-02-18T08:26:06.266Z,2780
2016-02-18T08:26:31.597Z,2784
2016-02-18T08:27:18.819Z,2808
2016-02-18T08:28:38.275Z,2944
2016-02-18T08:29:25.746Z,3120
2016-02-18T08:30:50.203Z,3484
2016-02-18T08:31:20.955Z,3596
2016-02-18T08:32:50.208Z,3860
2016-02-18T08:33:31.867Z,3964
2016-02-18T08:34:18.947Z,4040
2016-02-18T08:35:44.638Z,4112
2016-02-18T08:36:28.531Z,4124
2016-02-18T08:37:28.533Z,4228
2016-02-18T08:38:34.833Z,4316
2016-02-18T08:39:28.773Z,4396
2016-02-18T08:40:47.838Z,4408
2016-02-18T08:41:30.044Z,4360
2016-02-18T08:42:54.499Z,4260
2016-02-18T08:43:38.393Z,4300
2016-02-18T08:45:35.368Z,4308
2016-02-18T08:46:13.636Z,4280
2016-02-18T08:48:16.751Z,4152
2016-02-18T08:49:26.300Z,4100
2016-02-18T08:50:00.659Z,4000
2016-02-18T08:51:13.399Z,3992
2016-02-18T08:52:13.526Z,4024
2016-02-18T08:53:19.811Z,4040
2016-02-18T08:55:35.269Z,4220
2016-02-18T08:56:03.909Z,4252
2016-02-18T08:57:04.023Z,4276
2016-02-18T08:58:10.793Z,4288
2016-02-18T08:59:04.012Z,4260
2016-02-18T09:00:23.158Z,4172
2016-02-18T09:01:07.033Z,4160
2016-02-18T09:02:26.273Z,4208
2016-02-18T09:03:07.726Z,4200
2016-02-18T09:05:09.747Z,4156
2016-02-18T09:05:48.015Z,4096
2016-02-18T09:06:22.206Z,4028
2016-02-18T09:08:24.992Z,3860
2016-02-18T09:09:03.211Z,3856
2016-02-18T09:09:37.589Z,3852
2016-02-18T09:10:37.654Z,3804
2016-02-18T09:11:37.593Z,3752
2016-02-18T09:12:37.627Z,3716
2016-02-18T09:13:39.037Z,3708
2016-02-18T09:14:43.915Z,3708
2016-02-18T09:15:56.854Z,3668
2016-02-18T09:16:50.623Z,3592
2016-02-18T09:18:03.344Z,3484
2016-02-18T09:20:12.056Z,3332
2016-02-18T09:20:53.618Z,3328
2016-02-18T09:23:34.485Z,3464
2016-02-18T09:24:08.939Z,3484
2016-02-18T09:26:11.459Z,3524
2016-02-18T09:26:24.056Z,3520
2016-02-18T09:27:24.120Z,3472
2016-02-18T09:28:36.765Z,3412
2016-02-18T09:29:24.064Z,3396
2016-02-18T09:30:43.270Z,3444
2016-02-18T09:31:24.757Z,3480
2016-02-18T09:33:21.122Z,3428
2016-02-18T09:35:02.484Z,3380
2016-02-18T09:35:36.830Z,3356
2016-02-18T09:36:37.489Z,3340
2016-02-18T09:37:37.647Z,3288
2016-02-18T09:38:49.682Z,3156
2016-02-18T09:39:36.888Z,3036
2016-02-18T09:42:05.675Z,2876
2016-02-18T09:42:46.521Z,2872
2016-02-18T09:43:46.508Z,2884
2016-02-18T09:44:59.371Z,2868
2016-02-18T09:45:46.513Z,2864
2016-02-18T09:47:05.751Z,2888
2016-02-18T09:47:46.596Z,2908
2016-02-18T09:49:59.179Z,2964
2016-02-18T09:51:15.374Z,2968
2016-02-18T09:53:24.457Z,2904
2016-02-18T09:53:37.129Z,2880
2016-02-18T09:54:37.085Z,2888
2016-02-18T09:55:37.087Z,2908
2016-02-18T09:56:37.090Z,2920
2016-02-18T09:57:49.858Z,2952
2016-02-18T09:58:37.736Z,2992
2016-02-18T10:00:02.800Z,3064
2016-02-18T10:00:46.647Z,3088
2016-02-18T10:01:59.510Z,3136
2016-02-18T10:02:48.278Z,3208
2016-02-18T10:04:56.424Z,3328
2016-02-18T10:06:09.020Z,3408
2016-02-18T10:07:09.007Z,3464
2016-02-18T10:08:21.778Z,3556
2016-02-18T10:09:09.653Z,3636
2016-02-18T10:10:28.893Z,3624
2016-02-18T10:11:15.818Z,3572
2016-02-18T10:12:12.802Z,3540
2016-02-18T10:13:25.527Z,3524
2016-02-18T10:14:12.870Z,3536
2016-02-18T10:15:25.766Z,3560
2016-02-18T10:16:12.938Z,3592
2016-02-18T10:17:32.068Z,3676
2016-02-18T10:18:41.430Z,3688
2016-02-18T10:21:13.499Z,3448
2016-02-18T10:23:14.175Z,3320
2016-02-18T10:24:57.978Z,3500
2016-02-18T10:25:32.324Z,3560
2016-02-18T10:27:34.954Z,3696
2016-02-18T10:27:47.517Z,3724
2016-02-18T10:28:47.660Z,3832
2016-02-18T10:29:53.803Z,3808
2016-02-18T10:31:00.369Z,3672
2016-02-18T10:32:00.168Z,3652
2016-02-18T10:33:13.281Z,3744
2016-02-18T10:35:15.961Z,4028
2016-02-18T10:35:50.179Z,4108
2016-02-18T10:37:52.872Z,4212
2016-02-18T10:38:05.638Z,4240
2016-02-18T10:39:05.547Z,4404
2016-02-18T10:40:11.955Z,4568
2016-02-18T10:41:11.880Z,4680
2016-02-18T10:42:24.730Z,4660
2016-02-18T10:43:24.716Z,4588
2016-02-18T10:44:24.750Z,4560
2016-02-18T10:46:40.990Z,4680
2016-02-18T10:47:34.555Z,4656
2016-02-18T10:49:12.323Z,4596
2016-02-18T10:49:24.904Z,4616
2016-02-18T10:50:44.094Z,4604
2016-02-18T10:51:24.956Z,4620
2016-02-18T10:53:21.977Z,4600
2016-02-18T10:53:34.556Z,4552
2016-02-18T10:55:40.858Z,4492
2016-02-18T10:56:34.595Z,4632
2016-02-18T10:57:53.817Z,5012
2016-02-18T10:58:34.615Z,5224
2016-02-18T11:00:44.324Z,5428
2016-02-18T11:01:44.312Z,5432
2016-02-18T11:02:56.971Z,5512
2016-02-18T11:03:45.067Z,5576
2016-02-18T11:05:09.945Z,5616
2016-02-18T11:05:44.885Z,5636
2016-02-18T11:07:15.591Z,5500
2016-02-18T11:07:53.844Z,5368
2016-02-18T11:09:50.812Z,5056
2016-02-18T11:10:06.421Z,5016
2016-02-18T11:12:00.434Z,4912
2016-02-18T11:12:13.012Z,4888
2016-02-18T11:14:15.672Z,4304
2016-02-18T11:14:47.467Z,4228
2016-02-18T11:15:28.262Z,4004
2016-02-18T11:16:53.932Z,3932
2016-02-18T11:17:37.822Z,3872
2016-02-18T11:18:57.073Z,3600
2016-02-18T11:20:06.620Z,3416
2016-02-18T11:22:42.592Z,3484
2016-02-18T11:23:55.532Z,3768
2016-02-18T11:27:01.116Z,3484
2016-02-18T11:28:01.133Z,3340
2016-02-18T11:29:13.854Z,3236
2016-02-18T11:30:13.872Z,3248
2016-02-18T11:33:32.991Z,3672
2016-02-18T11:35:35.621Z,3996
2016-02-18T11:36:13.871Z,4036
2016-02-18T11:36:48.233Z,4116
2016-02-18T11:39:03.379Z,4096
2016-02-18T11:40:03.414Z,4048
2016-02-18T11:42:31.359Z,4316
2016-02-18T11:44:47.427Z,3988
2016-02-18T11:47:21.873Z,3836
2016-02-18T11:47:56.233Z,3820
2016-02-18T11:49:53.221Z,3936
2016-02-18T11:50:05.799Z,3984
2016-02-18T11:52:08.446Z,4392
2016-02-18T11:52:21.027Z,4468
2016-02-18T11:53:21.091Z,4524
2016-02-18T11:54:33.797Z,4332
2016-02-18T11:55:33.894Z,4372
2016-02-18T11:56:40.084Z,4432
2016-02-18T11:57:40.477Z,4520
2016-02-18T11:58:46.590Z,4692
2016-02-18T12:00:50.017Z,4708
2016-02-18T12:01:33.910Z,4632
2016-02-18T12:02:33.912Z,4600
2016-02-18T12:03:40.431Z,4508
2016-02-18T12:04:46.731Z,4380
2016-02-18T12:07:34.707Z,4964
2016-02-18T12:08:27.601Z,5240
2016-02-18T12:08:56.335Z,5404
2016-02-18T12:09:56.337Z,5816
2016-02-18T12:11:03.200Z,5940
2016-02-18T12:11:57.781Z,5708
2016-02-18T12:13:53.364Z,5696
2016-02-18T12:14:10.427Z,5684
2016-02-18T12:15:09.008Z,5572
2016-02-18T12:16:21.716Z,5432
2016-02-18T12:17:15.263Z,5548
2016-02-18T12:18:34.722Z,6032
2016-02-18T12:21:28.230Z,6152
2016-02-18T12:21:40.902Z,6148
2016-02-18T12:22:40.919Z,6336
2016-02-18T12:23:47.204Z,6528
2016-02-18T12:24:53.706Z,6632
2016-02-18T12:25:47.241Z,6588
2016-02-18T12:27:00.196Z,6548
2016-02-18T12:27:41.058Z,6744
2016-02-18T12:29:56.345Z,7500
2016-02-18T12:30:08.954Z,7460
2016-02-18T12:31:08.926Z,7292
2016-02-18T12:32:08.975Z,7372
2016-02-18T12:33:08.993Z,7320
2016-02-18T12:34:21.827Z,6844
2016-02-18T12:35:21.768Z,6172
2016-02-18T12:36:34.692Z,5560
2016-02-18T12:37:21.788Z,5220
2016-02-18T12:39:30.622Z,4704
2016-02-18T12:41:21.409Z,5064
2016-02-18T12:41:54.643Z,5136
2016-02-18T12:42:35.426Z,5460
2016-02-18T12:44:38.073Z,6304
2016-02-18T12:45:09.964Z,6400
2016-02-18T12:46:09.873Z,7192
2016-02-18T12:47:16.375Z,7956
2016-02-18T12:48:10.112Z,8508
2016-02-18T12:50:12.555Z,8436
2016-02-18T12:50:31.494Z,8380
2016-02-18T12:51:56.497Z,7684
2016-02-18T12:52:41.064Z,7432
2016-02-18T12:53:28.300Z,7580
2016-02-18T12:54:41.053Z,7888
2016-02-18T12:55:29.727Z,8164
2016-02-18T12:56:47.558Z,8460
2016-02-18T12:58:03.388Z,8860
2016-02-18T12:58:35.188Z,8984
2016-02-18T13:00:06.487Z,9248
2016-02-18T13:00:50.460Z,9288
2016-02-18T13:03:00.105Z,9004
2016-02-18T13:03:51.062Z,8896
2016-02-18T13:06:34.523Z,8276
2016-02-18T13:06:47.101Z,8240
2016-02-18T13:07:47.134Z,8116
2016-02-18T13:08:53.465Z,8276
2016-02-18T13:09:59.890Z,8404
2016-02-18T13:12:03.021Z,8860
2016-02-18T13:13:09.492Z,9292
2016-02-18T13:13:50.729Z,9484
2016-02-18T13:15:54.422Z,9272
2016-02-18T13:16:26.205Z,9136
2016-02-18T13:17:07.017Z,8888
2016-02-18T13:18:07.052Z,8628
2016-02-18T13:19:07.055Z,8540
2016-02-18T13:20:07.089Z,8216
2016-02-18T13:21:07.092Z,8136
2016-02-18T13:22:13.344Z,8200
2016-02-18T13:23:08.847Z,8320
2016-02-18T13:24:26.322Z,8260
2016-02-18T13:25:10.212Z,8116
2016-02-18T13:27:13.482Z,7372
2016-02-18T13:27:26.219Z,7272
2016-02-18T13:28:38.847Z,7028
2016-02-18T13:29:38.882Z,6872
2016-02-18T13:30:45.321Z,6808
2016-02-18T13:32:48.795Z,6608
2016-02-18T13:35:04.004Z,6076
2016-02-18T13:35:16.598Z,6044
2016-02-18T13:36:16.757Z,5964
2016-02-18T13:37:42.324Z,6108
2016-02-18T13:38:52.249Z,6284
2016-02-18T13:40:23.221Z,6728
2016-02-18T13:41:38.507Z,6972
2016-02-18T13:42:16.632Z,6920
2016-02-18T13:42:57.370Z,6836
2016-02-18T13:45:00.656Z,6376
2016-02-18T13:45:13.156Z,6344
2016-02-18T13:46:13.095Z,6100
2016-02-18T13:47:26.070Z,5908
2016-02-18T13:48:25.854Z,6128
2016-02-18T13:49:32.341Z,6244
2016-02-18T13:50:32.344Z,5916
2016-02-18T13:51:44.487Z,5300
2016-02-18T13:52:38.880Z,5172
2016-02-18T13:55:15.995Z,5092
2016-02-18T13:55:54.264Z,5036
2016-02-18T13:56:28.719Z,5012
2016-02-18T13:58:31.225Z,5012
2016-02-18T13:58:43.803Z,5004
2016-02-18T13:59:43.852Z,4972
2016-02-18T14:00:44.496Z,5044
2016-02-18T14:01:50.217Z,5060
2016-02-18T14:02:56.627Z,5036
2016-02-18T14:03:56.613Z,4892
2016-02-18T14:05:09.620Z,4732
2016-02-18T14:05:43.982Z,4708
2016-02-18T14:07:35.894Z,4764
2016-02-18T14:07:48.487Z,4752
2016-02-18T14:09:19.786Z,4764
2016-02-18T14:09:53.211Z,4784
2016-02-18T14:11:57.294Z,5084
2016-02-18T14:12:10.122Z,5136
2016-02-18T14:13:10.033Z,5340
2016-02-18T14:14:10.050Z,5540
2016-02-18T14:15:10.038Z,5644
2016-02-18T14:16:29.308Z,5752
2016-02-18T14:17:10.105Z,5748
2016-02-18T14:18:35.876Z,5652
2016-02-18T14:19:10.173Z,5588
2016-02-18T14:20:42.835Z,5452
2016-02-18T14:21:14.491Z,5456
2016-02-18T14:22:14.510Z,5512
2016-02-18T14:23:27.499Z,5472
2016-02-18T14:24:14.609Z,5440
2016-02-18T14:25:40.240Z,5428
2016-02-18T14:26:15.974Z,5432
2016-02-18T14:27:40.370Z,5400
2016-02-18T14:28:14.854Z,5308
2016-02-18T14:29:15.294Z,5212
2016-02-18T14:30:27.581Z,5164
2016-02-18T14:31:14.612Z,5132
2016-02-18T14:33:50.042Z,4932
2016-02-18T14:34:33.951Z,4908
2016-02-18T14:35:59.641Z,4792
2016-02-18T14:36:40.269Z,4728
2016-02-18T14:38:49.196Z,4588
2016-02-18T14:40:08.417Z,4500
2016-02-18T14:41:26.829Z,4432
2016-02-18T14:41:58.986Z,4396
2016-02-18T14:42:58.456Z,4332
2016-02-18T14:43:58.662Z,4276
2016-02-18T14:45:11.400Z,4236
2016-02-18T14:45:58.996Z,4208
2016-02-18T14:47:17.921Z,4220
2016-02-18T14:47:59.298Z,4232
2016-02-18T14:48:58.832Z,4272
2016-02-18T14:49:58.960Z,4292
2016-02-18T14:50:58.884Z,4312
2016-02-18T14:51:58.871Z,4336
2016-02-18T14:52:58.812Z,4384
2016-02-18T14:54:11.565Z,4424
2016-02-18T14:55:11.567Z,4440
2016-02-18T14:55:58.866Z,4444
2016-02-18T14:57:18.040Z,4480
2016-02-18T14:57:58.919Z,4452
2016-02-18T15:00:08.456Z,4320
2016-02-18T15:01:34.165Z,4344
2016-02-18T15:02:08.462Z,4356
2016-02-18T15:03:08.542Z,4368
2016-02-18T15:04:14.811Z,4364
2016-02-18T15:05:08.610Z,4376
2016-02-18T15:06:21.473Z,4280
2016-02-18T15:07:08.647Z,4156
2016-02-18T15:09:43.686Z,3752
2016-02-18T15:10:53.314Z,3624
2016-02-18T15:11:46.848Z,3444
2016-02-18T15:13:02.054Z,3336
2016-02-18T15:13:43.509Z,3280
2016-02-18T15:14:30.747Z,3208
2016-02-18T15:15:30.781Z,3108
2016-02-18T15:16:30.830Z,3028
2016-02-18T15:17:32.239Z,2948
2016-02-18T15:18:43.570Z,2864
2016-02-18T15:19:44.167Z,2808
2016-02-18T15:21:27.934Z,2748
2016-02-18T15:23:02.862Z,2720
2016-02-18T15:24:15.786Z,2680
2016-02-18T15:24:50.352Z,2656
2016-02-18T15:27:05.482Z,2560
2016-02-18T15:28:05.485Z,2540
2016-02-18T15:29:05.674Z,2540
2016-02-18T15:30:05.553Z,2540
2016-02-18T15:31:05.540Z,2536
2016-02-18T15:32:05.558Z,2524
2016-02-18T15:33:05.577Z,2500
2016-02-18T15:34:05.594Z,2472
2016-02-18T15:35:18.347Z,2428
2016-02-18T15:36:18.381Z,2396
2016-02-18T15:37:24.838Z,2360
2016-02-18T15:38:18.465Z,2332
2016-02-18T15:40:21.876Z,2284
2016-02-18T15:41:31.476Z,2268
2016-02-18T15:42:31.462Z,2224
2016-02-18T15:44:17.981Z,2172
2016-02-18T15:44:30.562Z,2160
2016-02-18T15:45:30.595Z,2136
2016-02-18T15:48:07.257Z,2056
2016-02-18T15:48:41.589Z,2036
2016-02-18T15:50:56.781Z,1992
2016-02-18T15:51:56.815Z,1956
2016-02-18T15:52:58.239Z,1912
2016-02-18T15:54:09.585Z,1864
2016-02-18T15:54:56.917Z,1840